Time;durP1;ratioP1;P1;durP2;ratioP2;P2;SDS_P1;SDS_P2;PMS_P1;PMS_P2;Temp;Humidity;BMP_temperature;BMP_pressure;BME280_temperature;BME280_humidity;BME280_pressure;Samples;Min_cycle;Max_cycle;Signal;HPM_P1;HPM_P2
2021/12/24 00:01:01;;;;;;;101.05;73.57;;;;;;;3.38;46.47;101555.28;5071486;28;20450;-65
2021/12/24 00:03:28;;;;;;;100.53;73.57;;;;;;;3.45;46.43;101562.88;5071321;28;20565;-65
2021/12/24 00:05:55;;;;;;;96.55;71.88;;;;;;;3.58;46.23;101564.13;5070488;28;20407;-67
2021/12/24 00:08:22;;;;;;;95.32;71.90;;;;;;;3.60;46.02;101560.53;5071265;28;20552;-65
2021/12/24 00:10:58;;;;;;;98.45;73.03;;;;;;;3.47;46.46;101546.22;5071080;28;20414;-65
2021/12/24 00:13:26;;;;;;;99.22;74.38;;;;;;;3.59;46.23;101548.34;5071074;28;20922;-67
2021/12/24 00:16:01;;;;;;;101.85;74.20;;;;;;;3.72;46.11;101546.06;5071137;28;20461;-66
2021/12/24 00:18:37;;;;;;;109.88;77.68;;;;;;;3.75;45.92;101551.19;5070837;28;20927;-65
2021/12/24 00:35:11;;;;;;;91.85;70.43;;;;;;;3.46;46.44;101514.84;5070527;28;20464;-65
2021/12/24 00:37:38;;;;;;;84.43;67.50;;;;;;;3.34;46.60;101519.63;5070567;28;20431;-65
2021/12/24 00:40:13;;;;;;;86.40;67.13;;;;;;;3.45;46.52;101521.84;5059584;28;20491;-65
2021/12/24 00:42:44;;;;;;;86.10;68.03;;;;;;;3.54;46.27;101525.84;5090538;28;20934;-64
2021/12/24 00:45:13;;;;;;;80.27;62.73;;;;;;;3.54;46.57;101521.47;5090723;28;20508;-65
2021/12/24 00:47:40;;;;;;;79.10;63.80;;;;;;;3.43;46.61;101510.59;5090482;28;20533;-65
2021/12/24 00:50:12;;;;;;;77.20;60.28;;;;;;;3.37;46.98;101510.84;5090438;28;20496;-65
2021/12/24 00:52:52;;;;;;;74.03;59.33;;;;;;;3.42;46.78;101509.72;5090637;28;20810;-65
2021/12/24 00:55:20;;;;;;;71.53;57.23;;;;;;;3.30;47.19;101506.75;5090861;28;20417;-65
2021/12/24 00:57:54;;;;;;;75.65;58.72;;;;;;;3.32;47.11;101494.44;5089742;28;20512;-65
2021/12/24 01:00:23;;;;;;;75.95;58.50;;;;;;;3.29;47.10;101487.56;5089552;28;20405;-65
2021/12/24 01:02:52;;;;;;;75.38;59.00;;;;;;;3.19;47.47;101480.97;5090409;28;20409;-65
2021/12/24 01:05:22;;;;;;;77.78;59.35;;;;;;;3.16;47.47;101471.50;5090151;28;20409;-65
2021/12/24 01:07:50;;;;;;;81.10;63.90;;;;;;;3.11;47.60;101465.56;5090199;28;20495;-65
2021/12/24 01:10:19;;;;;;;78.70;61.57;;;;;;;3.13;47.67;101462.91;5090374;28;21021;-64
2021/12/24 01:12:46;;;;;;;83.22;66.05;;;;;;;3.21;47.43;101450.34;5090665;28;20488;-64
2021/12/24 01:15:15;;;;;;;83.25;63.65;;;;;;;3.12;47.53;101450.72;5089954;28;20409;-64
2021/12/24 01:17:49;;;;;;;76.60;60.10;;;;;;;3.18;47.38;101437.38;5090029;28;20425;-65
2021/12/24 01:20:24;;;;;;;76.60;58.92;;;;;;;3.16;47.50;101428.72;5089888;28;20483;-65
2021/12/24 01:25:40;;;;;;;82.20;62.80;;;;;;;2.83;48.66;101423.94;5090251;28;20398;-65
2021/12/24 01:39:20;;;;;;;84.40;65.53;;;;;;;3.01;47.85;101397.03;5069021;28;20458;-64
2021/12/24 01:44:32;;;;;;;86.28;68.68;;;;;;;2.08;50.17;101387.53;5089546;28;20447;-65
2021/12/24 01:47:03;;;;;;;85.63;65.28;;;;;;;1.59;51.34;101384.91;5089686;28;20449;-65
2021/12/24 01:49:30;;;;;;;84.15;68.10;;;;;;;2.09;50.41;101384.88;5089799;28;20401;-65
2021/12/24 01:51:58;;;;;;;88.95;67.75;;;;;;;2.48;49.17;101379.06;5089498;28;20875;-65
2021/12/24 01:54:26;;;;;;;86.45;67.43;;;;;;;2.53;48.85;101378.88;5089581;28;20865;-64
2021/12/24 01:56:53;;;;;;;104.35;75.53;;;;;;;2.52;48.52;101375.41;5089704;28;20429;-64
2021/12/24 01:59:20;;;;;;;118.30;79.90;;;;;;;2.43;48.94;101372.28;5089616;28;20918;-64
2021/12/24 02:01:47;;;;;;;100.60;74.50;;;;;;;2.35;48.81;101373.47;5089318;28;20566;-64
2021/12/24 02:04:15;;;;;;;111.22;80.53;;;;;;;2.30;48.99;101366.69;5089362;28;20496;-64
2021/12/24 02:06:44;;;;;;;102.70;76.65;;;;;;;2.05;50.09;101349.31;5089339;28;20405;-64
2021/12/24 02:09:11;;;;;;;99.15;74.85;;;;;;;2.10;49.75;101351.75;5089575;28;20442;-65
2021/12/24 02:11:40;;;;;;;95.60;76.67;;;;;;;1.52;52.12;101345.13;5092833;28;20444;-64
2021/12/24 02:14:09;;;;;;;90.78;70.65;;;;;;;1.91;51.90;101346.38;5093292;28;20882;-64
2021/12/24 02:16:48;;;;;;;99.80;75.65;;;;;;;2.09;50.70;101339.56;5093148;28;20413;-66
2021/12/24 02:30:36;;;;;;;93.15;70.60;;;;;;;2.04;49.83;101308.41;5090460;28;20404;-65
2021/12/24 02:33:04;;;;;;;87.47;68.85;;;;;;;1.97;49.74;101301.72;5092859;28;20488;-65
2021/12/24 02:35:33;;;;;;;89.43;70.18;;;;;;;1.87;50.30;101305.56;5092155;28;20807;-65
2021/12/24 02:38:02;;;;;;;88.50;70.40;;;;;;;2.00;49.83;101298.97;5092612;28;20460;-65
2021/12/24 02:40:30;;;;;;;91.30;71.17;;;;;;;1.99;49.65;101285.06;5076252;28;20412;-65
2021/12/24 02:42:58;;;;;;;88.97;71.40;;;;;;;1.95;49.83;101287.84;5092785;28;20423;-64
2021/12/24 02:45:27;;;;;;;88.80;68.63;;;;;;;1.85;49.62;101292.56;5092909;28;20412;-64
2021/12/24 02:48:11;;;;;;;87.07;66.10;;;;;;;1.85;49.85;101291.72;5093086;28;20903;-65
2021/12/24 02:56:11;;;;;;;79.45;64.57;;;;;;;1.82;49.38;101278.75;5092606;28;20412;-64
2021/12/24 02:58:40;;;;;;;77.87;61.50;;;;;;;1.81;49.15;101280.53;5092832;28;20524;-64
2021/12/24 03:01:07;;;;;;;85.50;65.78;;;;;;;1.68;49.59;101274.88;5092512;28;20840;-64
2021/12/24 03:03:34;;;;;;;79.80;62.70;;;;;;;1.69;49.15;101268.75;5092605;28;20496;-65
2021/12/24 03:06:01;;;;;;;75.88;60.42;;;;;;;1.64;49.43;101273.28;5092810;28;20413;-65
2021/12/24 03:08:30;;;;;;;83.22;65.13;;;;;;;1.57;49.61;101266.59;5092396;28;20410;-66
2021/12/24 03:10:58;;;;;;;77.70;61.40;;;;;;;1.47;49.80;101270.47;5092254;28;20441;-65
2021/12/24 03:13:26;;;;;;;75.78;58.50;;;;;;;1.42;49.85;101264.53;5093096;28;20413;-65
2021/12/24 03:15:55;;;;;;;69.97;57.67;;;;;;;1.57;49.66;101254.38;5092618;28;20409;-64
2021/12/24 03:18:26;;;;;;;73.40;58.07;;;;;;;1.68;49.06;101253.97;5092454;28;20833;-64
2021/12/24 03:21:01;;;;;;;73.95;58.65;;;;;;;1.39;49.81;101242.84;5092425;28;20428;-65
2021/12/24 03:23:41;;;;;;;77.97;59.80;;;;;;;1.47;49.81;101239.13;5091565;28;20437;-64
2021/12/24 03:26:10;;;;;;;80.45;62.28;;;;;;;1.67;49.02;101235.78;5092265;28;20405;-64
2021/12/24 03:28:37;;;;;;;80.65;63.90;;;;;;;1.73;49.01;101233.78;5092484;28;20417;-65
2021/12/24 03:31:06;;;;;;;73.88;60.15;;;;;;;1.80;48.85;101235.25;5092032;28;20409;-65
2021/12/24 03:33:33;;;;;;;73.78;60.70;;;;;;;1.70;48.90;101241.72;5092229;28;20435;-64
2021/12/24 03:36:01;;;;;;;71.45;58.60;;;;;;;1.79;48.64;101228.31;5092160;28;20403;-65
2021/12/24 03:38:30;;;;;;;70.72;60.40;;;;;;;1.64;48.75;101235.88;5091828;28;20424;-65
2021/12/24 03:40:57;;;;;;;69.10;57.47;;;;;;;1.69;48.66;101224.34;5073578;28;21000;-64
2021/12/24 03:43:24;;;;;;;68.45;55.75;;;;;;;1.68;48.80;101216.56;5091961;28;20409;-64
2021/12/24 03:45:59;;;;;;;67.43;56.38;;;;;;;1.66;48.76;101214.00;5091471;28;20421;-64
2021/12/24 03:48:39;;;;;;;70.18;58.53;;;;;;;1.68;48.82;101225.25;5091614;28;20413;-65
2021/12/24 03:51:22;;;;;;;70.80;56.60;;;;;;;1.57;49.11;101219.59;5091708;28;20420;-65
2021/12/24 03:56:37;;;;;;;74.65;58.40;;;;;;;1.76;48.56;101199.72;5091544;28;20582;-65
2021/12/24 03:59:05;;;;;;;71.75;58.63;;;;;;;1.82;48.41;101203.84;5091622;28;20510;-65
2021/12/24 04:01:33;;;;;;;71.75;58.78;;;;;;;1.81;48.36;101204.75;5091790;28;20942;-65
2021/12/24 04:04:00;;;;;;;75.27;59.80;;;;;;;1.85;47.97;101205.50;5091583;28;20410;-65
2021/12/24 04:06:27;;;;;;;71.88;58.25;;;;;;;1.75;48.07;101207.59;5091351;28;20453;-65
2021/12/24 04:08:56;;;;;;;68.13;57.17;;;;;;;1.65;48.33;101212.31;5091229;28;20786;-64
2021/12/24 04:11:23;;;;;;;72.90;59.47;;;;;;;1.63;48.38;101195.84;5091459;28;20437;-66
2021/12/24 04:13:50;;;;;;;74.85;59.58;;;;;;;1.79;48.21;101203.97;5091227;28;20409;-64
2021/12/24 04:16:17;;;;;;;71.60;58.75;;;;;;;1.91;47.73;101202.66;5090735;28;20402;-64
2021/12/24 04:18:51;;;;;;;71.93;57.27;;;;;;;1.92;47.98;101205.19;5091385;28;20451;-65
2021/12/24 04:26:48;;;;;;;78.20;58.33;;;;;;;2.13;47.48;101207.84;5090989;28;20486;-64
2021/12/24 04:29:15;;;;;;;78.05;61.65;;;;;;;2.19;47.28;101205.03;5091001;28;20910;-64
2021/12/24 04:31:45;;;;;;;83.40;63.67;;;;;;;2.14;47.48;101199.97;5091075;28;20886;-65
2021/12/24 04:34:13;;;;;;;95.63;71.43;;;;;;;2.22;47.16;101197.03;5090634;28;20763;-64
2021/12/24 04:37:05;;;;;;;92.35;71.90;;;;;;;2.25;47.07;101196.06;5090863;28;20416;-64
2021/12/24 04:39:44;;;;;;;89.95;68.53;;;;;;;2.16;47.26;101192.06;5074845;28;20400;-64
2021/12/24 05:01:35;;;;;;;77.68;62.22;;;;;;;2.11;47.40;101165.25;5051393;28;20409;-64
2021/12/24 05:04:04;;;;;;;80.30;65.10;;;;;;;2.04;47.61;101172.50;5090474;28;20491;-65
2021/12/24 05:06:36;;;;;;;77.18;60.83;;;;;;;1.93;47.72;101167.69;5090415;28;20409;-65
2021/12/24 05:09:08;;;;;;;82.70;64.90;;;;;;;2.15;47.38;101159.84;5090040;28;20420;-65
2021/12/24 05:11:36;;;;;;;81.95;65.15;;;;;;;2.20;47.24;101154.44;5090366;28;20417;-65
2021/12/24 05:14:05;;;;;;;76.32;61.85;;;;;;;2.27;47.04;101149.78;5090300;28;20768;-65
2021/12/24 05:16:42;;;;;;;75.45;60.45;;;;;;;2.01;47.28;101149.13;5090334;28;20413;-65
2021/12/24 05:21:54;;;;;;;93.65;69.78;;;;;;;2.28;46.80;101156.75;5090224;28;20404;-66
2021/12/24 05:24:23;;;;;;;79.18;62.75;;;;;;;2.18;47.22;101148.41;5090363;28;20478;-65
2021/12/24 05:26:54;;;;;;;85.25;71.93;;;;;;;2.17;47.54;101158.03;5089862;28;20505;-65
2021/12/24 05:29:22;;;;;;;86.47;69.68;;;;;;;2.08;47.14;101163.63;5090329;28;20405;-65
2021/12/24 05:31:50;;;;;;;84.63;66.32;;;;;;;2.06;47.56;101164.59;5090020;28;20497;-65
2021/12/24 05:34:18;;;;;;;74.45;57.97;;;;;;;2.03;47.03;101162.97;5089699;28;20420;-65
2021/12/24 05:36:46;;;;;;;84.35;63.40;;;;;;;1.96;47.19;101149.28;5089695;28;20911;-65
2021/12/24 05:39:14;;;;;;;89.10;66.85;;;;;;;1.88;47.59;101148.72;5074886;28;20426;-63
2021/12/24 05:41:41;;;;;;;87.93;66.10;;;;;;;1.94;48.01;101158.09;5089374;28;20447;-65
2021/12/24 05:44:14;;;;;;;85.17;64.57;;;;;;;1.92;47.57;101141.63;5089997;28;20477;-64
2021/12/24 05:46:41;;;;;;;80.50;62.53;;;;;;;1.90;47.37;101130.38;5089175;28;20447;-65
2021/12/24 05:49:08;;;;;;;78.50;60.65;;;;;;;1.32;48.97;101126.53;5089442;28;20853;-65
2021/12/24 05:51:36;;;;;;;78.55;58.88;;;;;;;1.70;47.92;101123.34;5089419;28;20994;-65
2021/12/24 05:54:05;;;;;;;74.80;58.50;;;;;;;1.96;47.53;101132.75;5089367;28;20443;-66
2021/12/24 05:56:32;;;;;;;78.55;61.08;;;;;;;2.00;47.19;101129.09;5089376;28;20866;-65
2021/12/24 05:58:59;;;;;;;78.10;60.17;;;;;;;1.96;47.29;101127.53;5089206;28;21365;-65
2021/12/24 06:01:27;;;;;;;78.05;62.67;;;;;;;2.04;47.25;101119.38;5089738;28;20495;-64
2021/12/24 06:03:54;;;;;;;87.38;69.32;;;;;;;2.05;47.24;101114.09;5089287;28;20926;-65
2021/12/24 06:06:21;;;;;;;79.80;61.05;;;;;;;2.10;47.09;101104.28;5089334;28;20492;-64
2021/12/24 06:08:49;;;;;;;87.50;71.00;;;;;;;1.99;47.32;101109.13;5089574;28;20424;-64
2021/12/24 06:11:15;;;;;;;101.65;79.70;;;;;;;2.23;47.08;101098.53;5089695;28;20406;-65
2021/12/24 06:13:42;;;;;;;106.03;79.63;;;;;;;2.38;46.75;101111.00;5089077;28;20444;-65
2021/12/24 06:16:10;;;;;;;269.33;159.25;;;;;;;2.46;46.55;101116.75;5089635;28;20403;-64
2021/12/24 06:18:40;;;;;;;129.65;94.78;;;;;;;2.44;46.83;101109.88;5089309;28;20425;-65
2021/12/24 06:21:08;;;;;;;107.10;82.47;;;;;;;2.39;46.80;101089.13;5089090;28;20475;-65
2021/12/24 06:23:37;;;;;;;105.53;77.78;;;;;;;1.98;47.52;101089.13;5089124;28;20500;-64
2021/12/24 06:26:05;;;;;;;128.35;87.15;;;;;;;2.23;47.25;101091.59;5089122;28;20936;-65
2021/12/24 06:28:33;;;;;;;113.05;83.43;;;;;;;2.63;46.44;101099.47;5089062;28;20416;-65
2021/12/24 06:31:01;;;;;;;108.95;78.53;;;;;;;2.57;46.43;101093.56;5088997;28;20413;-64
2021/12/24 06:33:28;;;;;;;115.47;81.30;;;;;;;2.66;46.39;101092.34;5089085;28;20488;-64
2021/12/24 06:35:57;;;;;;;111.10;80.07;;;;;;;2.48;46.43;101075.69;5089026;28;20978;-65
2021/12/24 06:38:24;;;;;;;112.60;80.05;;;;;;;2.46;46.98;101079.28;5088908;28;20432;-65
2021/12/24 06:40:52;;;;;;;114.43;80.73;;;;;;;3.00;46.08;101065.53;5073340;28;20504;-65
2021/12/24 06:43:19;;;;;;;120.25;85.38;;;;;;;3.38;45.09;101081.19;5089269;28;20436;-64
2021/12/24 06:45:47;;;;;;;116.45;84.88;;;;;;;3.73;44.68;101076.09;5088729;28;20496;-65
2021/12/24 06:48:14;;;;;;;129.85;96.28;;;;;;;4.16;43.52;101066.09;5088888;28;20791;-65
2021/12/24 06:50:41;;;;;;;147.30;103.82;;;;;;;4.63;42.76;101066.34;5089091;28;20495;-65
2021/12/24 06:53:10;;;;;;;135.43;99.63;;;;;;;5.32;41.59;101054.75;5089168;28;20417;-65
2021/12/24 06:55:37;;;;;;;127.45;96.65;;;;;;;6.67;39.17;101051.34;5088835;28;20786;-65
2021/12/24 06:58:04;;;;;;;141.10;109.57;;;;;;;9.42;34.97;101062.91;5091282;28;20463;-66
2021/12/24 07:00:32;;;;;;;126.53;102.05;;;;;;;11.96;30.62;101055.69;5092720;28;20435;-66
2021/12/24 07:02:59;;;;;;;117.68;95.03;;;;;;;13.76;27.51;101058.72;5092856;28;20420;-66
2021/12/24 07:05:26;;;;;;;109.13;93.75;;;;;;;15.19;25.88;101061.38;5092710;28;20409;-64
2021/12/24 07:07:53;;;;;;;108.05;92.07;;;;;;;17.02;23.53;101056.38;5092331;28;20977;-64
2021/12/24 07:10:22;;;;;;;109.93;91.95;;;;;;;17.86;22.69;101043.88;5092258;28;20405;-64
2021/12/24 07:12:49;;;;;;;89.28;79.68;;;;;;;17.91;22.56;101033.50;5092323;28;20846;-64
2021/12/24 07:15:17;;;;;;;92.15;81.97;;;;;;;15.61;24.42;101040.31;5092350;28;20424;-64
2021/12/24 07:17:44;;;;;;;87.90;78.38;;;;;;;13.62;26.58;101026.22;5092286;28;20412;-64
2021/12/24 07:20:11;;;;;;;86.32;76.82;;;;;;;12.02;28.74;101025.97;5092121;28;20432;-63
2021/12/24 07:22:38;;;;;;;98.85;88.28;;;;;;;11.34;30.04;101010.31;5092339;28;20413;-64
2021/12/24 07:25:06;;;;;;;108.18;93.57;;;;;;;11.18;30.24;101016.00;5092012;28;20504;-66
2021/12/24 07:27:34;;;;;;;97.10;85.55;;;;;;;13.92;27.62;101007.56;5091867;28;20844;-66
2021/12/24 07:30:02;;;;;;;81.85;72.53;;;;;;;14.97;26.23;101001.25;5091845;28;20995;-64
2021/12/24 07:32:29;;;;;;;70.88;63.50;;;;;;;16.31;24.78;101001.31;5092138;28;20466;-64
2021/12/24 07:34:56;;;;;;;68.15;61.08;;;;;;;18.09;22.43;101000.31;5091974;28;20906;-65
2021/12/24 07:37:23;;;;;;;68.65;61.58;;;;;;;16.87;23.49;101001.78;5091564;28;20492;-65
2021/12/24 07:39:52;;;;;;;77.00;68.80;;;;;;;15.91;24.75;101002.69;5077398;28;20460;-65
2021/12/24 07:42:20;;;;;;;70.38;63.00;;;;;;;19.84;20.42;101006.44;5091617;28;20405;-66
2021/12/24 07:44:48;;;;;;;65.18;58.60;;;;;;;19.58;20.53;100995.00;5091572;28;20412;-65
2021/12/24 07:47:27;;;;;;;68.25;61.35;;;;;;;19.48;20.50;100978.28;5091554;28;20448;-65
2021/12/24 07:50:00;;;;;;;63.88;57.38;;;;;;;14.47;25.57;100964.25;5091752;28;20401;-65
2021/12/24 07:52:26;;;;;;;65.47;58.80;;;;;;;12.34;28.67;100963.97;5091432;28;20405;-65
2021/12/24 07:54:55;;;;;;;63.83;57.20;;;;;;;10.96;30.59;100970.97;5091336;28;20401;-64
2021/12/24 07:57:23;;;;;;;62.03;55.60;;;;;;;12.87;28.21;100966.41;5091314;28;20464;-64
2021/12/24 07:59:52;;;;;;;63.67;57.20;;;;;;;12.00;29.65;100959.75;5090892;28;20431;-64
2021/12/24 08:02:26;;;;;;;63.13;56.67;;;;;;;17.24;23.67;100961.25;5090222;28;20512;-64
2021/12/24 08:04:53;;;;;;;62.03;55.97;;;;;;;19.87;20.45;100960.34;5090079;28;20437;-65
2021/12/24 08:07:21;;;;;;;63.58;57.35;;;;;;;21.94;18.46;100963.72;5089651;28;20409;-65
2021/12/24 08:09:48;;;;;;;63.80;57.40;;;;;;;23.63;17.10;100967.78;5088820;28;20967;-66
2021/12/24 08:12:15;;;;;;;65.53;59.45;;;;;;;24.62;15.94;100968.75;5090287;28;20968;-65
2021/12/24 08:14:42;;;;;;;61.13;55.30;;;;;;;25.27;15.24;100974.09;5090457;28;20492;-66
2021/12/24 08:17:11;;;;;;;66.32;59.42;;;;;;;25.81;14.40;100983.47;5091218;28;20978;-65
2021/12/24 08:19:38;;;;;;;62.42;56.25;;;;;;;25.44;14.90;100985.22;5090834;28;20948;-66
2021/12/24 08:22:06;;;;;;;56.90;51.72;;;;;;;25.61;14.57;100972.81;5090857;28;20428;-66
2021/12/24 08:24:33;;;;;;;58.65;53.15;;;;;;;26.16;14.31;100970.25;5091199;28;20416;-66
2021/12/24 08:27:00;;;;;;;59.63;53.83;;;;;;;26.60;13.84;100964.78;5090725;28;20409;-66
2021/12/24 08:29:27;;;;;;;59.53;53.93;;;;;;;27.62;13.33;100974.91;5090783;28;20409;-66
2021/12/24 08:31:54;;;;;;;67.78;60.83;;;;;;;26.87;13.57;100967.19;5090432;28;20409;-65
2021/12/24 08:34:23;;;;;;;66.03;59.17;;;;;;;27.86;13.05;100947.69;5089534;28;20429;-66
2021/12/24 08:36:52;;;;;;;59.85;53.97;;;;;;;28.46;12.88;100954.78;5090573;28;20494;-65
2021/12/24 08:39:21;;;;;;;62.17;56.08;;;;;;;28.25;12.83;100946.19;5082206;28;21573;-65
2021/12/24 08:41:52;;;;;;;73.37;64.07;;;;;;;28.69;12.53;100951.19;5088421;28;20507;-66
2021/12/24 08:44:19;;;;;;;59.67;54.00;;;;;;;28.62;12.46;100940.44;5090928;28;20412;-65
2021/12/24 08:46:46;;;;;;;63.35;57.72;;;;;;;27.63;13.11;100937.63;5090565;28;20424;-66
2021/12/24 08:49:13;;;;;;;63.67;57.72;;;;;;;28.76;12.84;100935.53;5090255;28;20969;-63
2021/12/24 08:51:41;;;;;;;70.67;64.33;;;;;;;27.76;13.26;100938.22;5090048;28;20493;-63
2021/12/24 08:54:08;;;;;;;70.78;64.18;;;;;;;29.41;12.12;100930.72;5090157;28;20491;-68
2021/12/24 08:56:35;;;;;;;69.30;62.75;;;;;;;29.01;12.30;100926.16;5090470;28;20492;-64
2021/12/24 08:59:02;;;;;;;73.07;66.40;;;;;;;29.99;11.83;100914.97;5089939;28;21017;-64
2021/12/24 09:01:29;;;;;;;73.15;66.45;;;;;;;31.43;10.61;100903.75;5090393;28;20898;-67
2021/12/24 09:03:56;;;;;;;70.90;64.30;;;;;;;31.46;10.91;100895.06;5089984;28;20496;-64
2021/12/24 09:06:24;;;;;;;70.75;64.15;;;;;;;31.65;10.69;100888.06;5089960;28;20440;-66
2021/12/24 09:08:53;;;;;;;80.37;71.67;;;;;;;31.23;10.94;100898.94;5090217;28;20409;-65
2021/12/24 09:11:20;;;;;;;81.22;72.93;;;;;;;31.48;10.83;100887.41;5090510;28;20496;-64
2021/12/24 09:13:47;;;;;;;75.60;68.60;;;;;;;31.10;10.85;100881.88;5089908;28;20504;-65
2021/12/24 09:16:14;;;;;;;81.80;73.85;;;;;;;31.57;10.79;100880.34;5087931;28;20413;-66
2021/12/24 09:18:42;;;;;;;84.68;76.88;;;;;;;31.67;10.57;100869.47;5088455;28;20874;-65
2021/12/24 09:21:15;;;;;;;99.18;89.80;;;;;;;30.94;11.04;100869.13;5089106;28;20783;-66
2021/12/24 09:23:46;;;;;;;110.32;99.40;;;;;;;31.28;10.99;100869.69;5089075;28;20409;-66
2021/12/24 09:26:14;;;;;;;97.55;87.97;;;;;;;30.50;11.48;100864.56;5089686;28;20420;-65
2021/12/24 09:28:41;;;;;;;100.68;90.32;;;;;;;30.85;11.31;100859.72;5090149;28;20470;-66
2021/12/24 09:31:08;;;;;;;98.63;88.67;;;;;;;32.13;10.87;100849.72;5089617;28;20409;-66
2021/12/24 09:33:35;;;;;;;90.93;81.57;;;;;;;31.43;10.98;100852.56;5089493;28;20492;-66
2021/12/24 09:36:02;;;;;;;86.60;78.32;;;;;;;32.56;10.60;100846.84;5089484;28;20926;-65
2021/12/24 09:38:29;;;;;;;86.13;77.63;;;;;;;33.59;9.92;100850.44;5089709;28;20433;-65
2021/12/24 09:40:56;;;;;;;86.22;77.63;;;;;;;33.65;10.00;100846.63;5089692;28;20432;-66
2021/12/24 09:43:26;;;;;;;94.37;84.90;;;;;;;34.31;9.21;100842.81;5069134;28;20520;-64
2021/12/24 09:45:53;;;;;;;76.20;69.22;;;;;;;35.12;9.26;100843.38;5089282;28;20401;-66
2021/12/24 09:48:20;;;;;;;77.78;69.97;;;;;;;35.31;9.08;100826.97;5089554;28;20413;-66
2021/12/24 09:50:48;;;;;;;69.28;63.03;;;;;;;34.71;9.40;100818.91;5089224;28;20492;-66
2021/12/24 09:53:14;;;;;;;71.63;64.65;;;;;;;35.21;9.08;100807.81;5089301;28;20409;-66
2021/12/24 09:55:41;;;;;;;69.63;62.53;;;;;;;35.69;9.23;100799.59;5089696;28;20416;-65
2021/12/24 09:58:08;;;;;;;73.82;66.03;;;;;;;35.81;9.07;100794.50;5089370;28;20506;-66
2021/12/24 10:00:37;;;;;;;63.58;57.65;;;;;;;36.42;8.75;100781.81;5089573;28;20519;-67
2021/12/24 10:03:05;;;;;;;65.25;58.97;;;;;;;37.10;8.22;100779.59;5089482;28;20471;-66
2021/12/24 10:05:36;;;;;;;65.15;58.65;;;;;;;36.80;8.68;100769.91;5088990;28;20413;-65
2021/12/24 10:08:06;;;;;;;53.85;48.85;;;;;;;36.86;8.79;100763.16;5088959;28;20587;-66
2021/12/24 10:10:34;;;;;;;52.60;46.90;;;;;;;36.24;8.87;100750.34;5089252;28;20425;-67
2021/12/24 10:13:43;;;;;;;17.88;15.57;;;;;;;34.95;9.74;100752.13;5089549;28;20417;-67
2021/12/24 10:16:15;;;;;;;14.73;10.77;;;;;;;35.46;9.90;100746.09;5083660;28;20468;-66
2021/12/24 10:18:44;;;;;;;12.20;9.40;;;;;;;35.45;9.80;100739.78;5089459;28;20466;-66
2021/12/24 10:21:14;;;;;;;12.15;9.45;;;;;;;35.04;9.95;100739.41;5089165;28;20929;-66
2021/12/24 10:23:52;;;;;;;12.10;7.93;;;;;;;34.57;10.14;100738.94;5089346;28;20420;-66
2021/12/24 10:26:23;;;;;;;10.00;7.32;;;;;;;33.49;10.86;100716.72;5089345;28;20492;-66
2021/12/24 10:28:57;;;;;;;10.63;6.90;;;;;;;32.35;11.63;100723.41;5089016;28;20437;-65
2021/12/24 10:31:28;;;;;;;11.10;6.90;;;;;;;32.38;11.70;100714.63;5090667;28;20491;-65
2021/12/24 10:34:07;;;;;;;10.60;5.22;;;;;;;30.60;12.79;100707.16;5093525;28;20409;-65
2021/12/24 10:36:34;;;;;;;10.02;6.07;;;;;;;31.05;12.44;100698.50;5093022;28;20484;-67
2021/12/24 10:39:01;;;;;;;10.05;5.55;;;;;;;30.49;12.75;100700.81;5092871;28;20859;-65
2021/12/24 10:41:30;;;;;;;11.38;4.70;;;;;;;30.73;12.75;100695.81;5092977;28;20529;-65
2021/12/24 10:44:15;;;;;;;13.75;6.60;;;;;;;30.59;13.02;100691.88;5078599;28;20547;-65
2021/12/24 10:46:58;;;;;;;6.07;4.18;;;;;;;30.31;13.28;100685.59;5092603;28;21013;-65
2021/12/24 10:49:37;;;;;;;8.00;5.27;;;;;;;31.14;12.44;100679.69;5092992;28;20558;-65
2021/12/24 10:52:14;;;;;;;9.15;7.00;;;;;;;30.47;13.21;100670.16;5092705;28;20904;-65
2021/12/24 10:54:53;;;;;;;16.03;7.13;;;;;;;29.19;13.93;100658.63;5092950;28;20413;-65
2021/12/24 10:57:23;;;;;;;9.68;6.43;;;;;;;28.95;14.33;100677.94;5090479;28;20409;-65
2021/12/24 10:59:53;;;;;;;11.37;6.00;;;;;;;28.70;14.54;100675.63;5090425;28;20488;-63
2021/12/24 11:02:24;;;;;;;12.20;5.82;;;;;;;28.43;14.88;100669.16;5089905;28;20522;-64
2021/12/24 11:04:53;;;;;;;13.93;6.65;;;;;;;28.53;14.61;100675.66;5090027;28;20413;-65
2021/12/24 11:07:35;;;;;;;10.15;6.10;;;;;;;28.14;15.07;100661.03;5088695;28;20413;-63
2021/12/24 11:10:09;;;;;;;12.27;8.23;;;;;;;27.76;15.16;100665.22;5091132;28;20968;-66
2021/12/24 11:12:37;;;;;;;13.73;7.78;;;;;;;26.93;15.70;100659.91;5089491;28;21125;-63
2021/12/24 11:15:18;;;;;;;11.38;6.38;;;;;;;26.31;16.41;100660.28;5090906;28;20413;-64
2021/12/24 11:17:46;;;;;;;13.63;8.90;;;;;;;26.49;16.29;100662.09;5090189;28;20518;-65
2021/12/24 11:20:13;;;;;;;11.27;9.37;;;;;;;26.10;16.70;100666.25;5086871;28;20412;-66
2021/12/24 11:22:51;;;;;;;12.48;8.52;;;;;;;24.98;17.70;100668.19;5089444;28;20416;-64
2021/12/24 11:25:20;;;;;;;9.85;8.10;;;;;;;25.43;17.47;100661.69;5090959;28;20484;-66
2021/12/24 11:27:47;;;;;;;20.60;11.18;;;;;;;24.53;18.74;100653.97;5090109;28;20409;-65
2021/12/24 11:30:15;;;;;;;14.27;10.68;;;;;;;24.19;18.68;100653.38;5090457;28;20520;-65
2021/12/24 11:32:42;;;;;;;21.80;13.13;;;;;;;23.58;19.46;100655.56;5090189;28;20776;-64
2021/12/24 11:35:12;;;;;;;18.43;11.87;;;;;;;23.43;19.50;100643.34;5090688;28;20405;-66
2021/12/24 11:37:41;;;;;;;13.40;10.43;;;;;;;23.20;19.98;100641.97;5090250;28;20902;-65
2021/12/24 11:40:08;;;;;;;16.75;12.48;;;;;;;22.46;20.96;100633.06;5090651;28;20500;-66
2021/12/24 11:42:39;;;;;;;14.65;9.50;;;;;;;21.59;21.57;100626.66;5086458;28;20424;-63
2021/12/24 11:45:07;;;;;;;17.08;10.60;;;;;;;21.05;22.28;100635.50;5080894;28;20412;-65
2021/12/24 11:47:34;;;;;;;23.77;12.18;;;;;;;20.77;22.88;100636.34;5090619;28;20413;-66
2021/12/24 11:50:02;;;;;;;21.08;11.02;;;;;;;20.04;23.86;100636.50;5088847;28;20519;-65
2021/12/24 11:52:30;;;;;;;19.80;10.83;;;;;;;19.57;24.54;100625.19;5090746;28;20405;-65
2021/12/24 11:54:59;;;;;;;16.30;9.90;;;;;;;19.40;24.51;100610.28;5089985;28;20496;-65
2021/12/24 11:57:26;;;;;;;26.87;15.13;;;;;;;18.49;25.63;100623.84;5089861;28;20416;-64
2021/12/24 11:59:53;;;;;;;12.50;7.43;;;;;;;18.24;26.43;100617.00;5089486;28;20929;-64
2021/12/24 12:02:40;;;;;;;18.35;10.50;;;;;;;17.69;27.10;100619.69;5089969;28;20791;-65
2021/12/24 12:05:15;;;;;;;14.27;9.70;;;;;;;17.56;27.51;100601.50;5090298;28;20827;-65
2021/12/24 12:07:45;;;;;;;20.48;11.60;;;;;;;17.21;27.90;100592.97;5091597;28;20512;-65
2021/12/24 12:10:12;;;;;;;13.85;10.45;;;;;;;17.09;28.02;100601.53;5091111;28;20447;-64
2021/12/24 12:12:42;;;;;;;12.80;9.15;;;;;;;16.96;28.38;100607.44;5090102;28;20433;-65
2021/12/24 12:15:28;;;;;;;13.63;8.93;;;;;;;16.82;28.76;100604.44;5089343;28;20405;-65
2021/12/24 12:17:58;;;;;;;12.67;8.93;;;;;;;16.80;28.83;100600.25;5089914;28;20780;-65
2021/12/24 12:20:43;;;;;;;13.07;7.25;;;;;;;16.64;29.13;100614.47;5091218;28;20444;-67
2021/12/24 12:23:51;;;;;;;9.20;6.60;;;;;;;16.61;29.15;100609.47;5091161;28;20462;-65
2021/12/24 12:26:36;;;;;;;10.90;7.72;;;;;;;16.49;29.38;100600.13;5089759;28;20419;-64
2021/12/24 12:29:41;;;;;;;11.05;7.97;;;;;;;16.54;29.27;100605.78;5090770;28;20936;-65
2021/12/24 12:32:41;;;;;;;9.20;6.85;;;;;;;16.45;29.51;100602.31;5066842;28;20496;-67
2021/12/24 12:35:09;;;;;;;10.88;7.70;;;;;;;16.58;29.33;100602.59;5008729;28;20412;-65
2021/12/24 12:37:45;;;;;;;9.73;8.00;;;;;;;16.65;29.41;100609.97;5007639;28;20960;-65
2021/12/24 12:40:35;;;;;;;13.98;7.78;;;;;;;16.54;29.65;100600.44;5050642;28;20405;-65
2021/12/24 12:43:11;;;;;;;10.30;7.10;;;;;;;16.54;29.76;100597.78;5090967;28;20414;-65
2021/12/24 12:46:04;;;;;;;11.52;8.15;;;;;;;16.42;29.89;100594.59;5090792;28;20911;-65